Smoke Creek, Nevada
Current Conditions -  °F | °C
As of 12:55 PM on Tuesday 27 Jan 2015 (Local Time) from KAAT Reporting Station
Overcast Overcast  
Wind Chill: 44°   Ceiling: 10000
Heat Index: 49°   Visibility: 10mi
Dew Point: 35°   Wind: 14mph
Humidity: 59%   Direction: 250°WSW
Pressure: 30.15"   Gusts: NA
Location:  41.1852°N, 119.649°W
Report Text: KAAT 272055Z AUTO 25012KT 10SM OVC100 09/02 A3015 RMK AO2 SLP212 T00940017 50002
Loading
Personal Weather Stations






























Interactive Weather Map New forecast layout! Learn more

10-Day Weather Forecast

Advertisements
Track Severe Weather on mobile